createdAt,value
2022-10-02T00:02:29.752Z,9.50
2022-10-02T00:05:02.728Z,9.50
2022-10-02T00:07:36.506Z,9.50
2022-10-02T00:10:14.285Z,9.50
2022-10-02T00:12:42.455Z,9.50
2022-10-02T00:15:16.947Z,9.50
2022-10-02T00:17:48.383Z,9.50
2022-10-02T00:20:17.860Z,9.50
2022-10-02T00:22:53.711Z,9.50
2022-10-02T00:25:27.531Z,9.60
2022-10-02T00:28:20.520Z,9.60
2022-10-02T00:31:08.003Z,9.60
2022-10-02T00:33:49.194Z,9.60
2022-10-02T00:36:29.782Z,9.70
2022-10-02T00:39:06.751Z,9.70
2022-10-02T00:41:58.326Z,9.70
2022-10-02T00:44:45.009Z,9.70
2022-10-02T00:47:21.754Z,9.80
2022-10-02T00:49:58.387Z,9.80
2022-10-02T00:52:41.883Z,9.90
2022-10-02T00:55:28.249Z,9.90
2022-10-02T00:58:17.912Z,9.90
2022-10-02T01:00:56.554Z,10.00
2022-10-02T01:03:30.343Z,10.00
2022-10-02T01:05:58.104Z,10.10
2022-10-02T01:08:26.228Z,10.10
2022-10-02T01:10:54.084Z,10.20
2022-10-02T01:13:21.845Z,10.20
2022-10-02T01:15:53.670Z,10.20
2022-10-02T01:18:21.805Z,10.30
2022-10-02T01:20:53.507Z,10.30
2022-10-02T01:23:27.600Z,10.30
2022-10-02T01:25:57.111Z,10.30
2022-10-02T01:28:25.395Z,10.30
2022-10-02T01:30:57.232Z,10.40
2022-10-02T01:33:25.181Z,10.40
2022-10-02T01:35:53.322Z,10.50
2022-10-02T01:38:24.596Z,10.50
2022-10-02T01:40:52.361Z,10.50
2022-10-02T01:43:26.389Z,10.50
2022-10-02T01:46:02.454Z,10.60
2022-10-02T01:48:52.277Z,10.60
2022-10-02T01:51:30.251Z,10.70
2022-10-02T01:54:08.356Z,10.70
2022-10-02T01:56:42.065Z,10.80
2022-10-02T01:59:23.320Z,10.80
2022-10-02T02:02:02.656Z,10.80
2022-10-02T02:04:35.384Z,10.80
2022-10-02T02:07:11.194Z,10.90
2022-10-02T02:09:43.141Z,10.90
2022-10-02T02:12:15.233Z,10.90
2022-10-02T02:14:49.243Z,11.00
2022-10-02T02:17:26.080Z,11.00
2022-10-02T02:19:59.613Z,11.10
2022-10-02T02:22:29.922Z,11.10
2022-10-02T02:25:00.756Z,11.10
2022-10-02T02:27:32.321Z,11.20
2022-10-02T02:30:04.941Z,11.20
2022-10-02T02:32:37.623Z,11.20
2022-10-02T02:35:10.149Z,11.30
2022-10-02T02:37:41.742Z,11.20
2022-10-02T02:40:13.553Z,11.30
2022-10-02T02:42:47.028Z,11.30
2022-10-02T02:45:20.677Z,11.30
2022-10-02T02:47:52.157Z,11.30
2022-10-02T02:50:23.929Z,11.30
2022-10-02T02:52:59.138Z,11.40
2022-10-02T02:55:31.999Z,11.40
2022-10-02T02:58:06.717Z,11.40
2022-10-02T03:00:35.806Z,11.40
2022-10-02T03:03:03.766Z,11.40
2022-10-02T03:05:32.986Z,11.40
2022-10-02T03:08:03.982Z,11.40
2022-10-02T03:10:44.540Z,11.40
2022-10-02T03:13:24.041Z,11.50
2022-10-02T03:16:04.735Z,11.50
2022-10-02T03:18:51.513Z,11.50
2022-10-02T03:21:27.899Z,11.50
2022-10-02T03:24:04.433Z,11.50
2022-10-02T03:26:38.605Z,11.60
2022-10-02T03:29:11.592Z,11.50
2022-10-02T03:31:42.172Z,11.60
2022-10-02T03:34:10.034Z,11.60
2022-10-02T03:36:38.499Z,11.60
2022-10-02T03:39:25.726Z,11.60
2022-10-02T03:41:54.537Z,11.60
2022-10-02T03:44:22.303Z,11.60
2022-10-02T03:46:51.454Z,11.60
2022-10-02T03:49:19.200Z,11.60
2022-10-02T03:51:46.925Z,11.60
2022-10-02T03:54:17.703Z,11.70
2022-10-02T03:56:53.978Z,11.70
2022-10-02T03:59:34.379Z,11.70
2022-10-02T04:02:08.483Z,11.70
2022-10-02T04:04:45.502Z,11.70
2022-10-02T04:07:19.173Z,11.70
2022-10-02T04:09:53.005Z,11.70
2022-10-02T04:12:26.836Z,11.70
2022-10-02T04:14:58.340Z,11.70
2022-10-02T04:17:35.037Z,11.80
2022-10-02T04:20:10.513Z,11.80
2022-10-02T04:22:42.629Z,11.80
2022-10-02T04:25:16.965Z,11.90
2022-10-02T04:27:52.125Z,11.90
2022-10-02T04:30:21.376Z,11.90
2022-10-02T04:32:51.234Z,11.90
2022-10-02T04:35:26.562Z,11.90
2022-10-02T04:38:16.275Z,11.90
2022-10-02T04:40:56.111Z,12.00
2022-10-02T04:43:44.057Z,12.00
2022-10-02T04:46:28.883Z,12.00
2022-10-02T04:49:23.542Z,12.00
2022-10-02T04:52:14.443Z,12.00
2022-10-02T04:54:59.581Z,12.00
2022-10-02T04:57:46.082Z,12.10
2022-10-02T05:00:16.903Z,12.10
2022-10-02T05:03:07.349Z,12.10
2022-10-02T05:05:54.877Z,12.10
2022-10-02T05:08:36.985Z,12.10
2022-10-02T05:11:15.709Z,12.10
2022-10-02T05:14:05.553Z,12.10
2022-10-02T05:16:51.026Z,12.10
2022-10-02T05:19:34.338Z,12.10
2022-10-02T05:22:17.250Z,12.10
2022-10-02T05:24:59.716Z,12.10
2022-10-02T05:27:47.686Z,12.10
2022-10-02T05:30:17.866Z,12.10
2022-10-02T05:33:02.543Z,12.20
2022-10-02T05:35:44.083Z,12.20
2022-10-02T05:38:23.532Z,12.20
2022-10-02T05:41:01.100Z,12.20
2022-10-02T05:43:40.747Z,12.20
2022-10-02T05:46:15.170Z,12.20
2022-10-02T05:48:46.430Z,12.20
2022-10-02T05:51:21.743Z,12.20
2022-10-02T05:53:57.998Z,12.20
2022-10-02T05:56:32.062Z,12.20
2022-10-02T05:59:05.445Z,12.20
2022-10-02T06:01:36.866Z,12.30
2022-10-02T06:04:11.638Z,12.30
2022-10-02T06:06:42.698Z,12.30
2022-10-02T06:09:19.852Z,12.30
2022-10-02T06:11:52.541Z,12.30
2022-10-02T06:14:27.060Z,12.30
2022-10-02T06:16:59.641Z,12.30
2022-10-02T06:19:33.579Z,12.30
2022-10-02T06:22:06.652Z,12.30
2022-10-02T06:24:41.257Z,12.40
2022-10-02T06:27:14.077Z,12.40
2022-10-02T06:29:46.212Z,12.40
2022-10-02T06:32:24.801Z,12.40
2022-10-02T06:34:52.687Z,12.40
2022-10-02T06:37:46.087Z,12.40
2022-10-02T06:40:53.352Z,12.40
2022-10-02T06:43:50.126Z,12.40
2022-10-02T06:46:27.585Z,12.40
2022-10-02T06:49:01.190Z,12.50
2022-10-02T06:51:41.465Z,12.50
2022-10-02T06:54:30.892Z,12.50
2022-10-02T06:57:28.624Z,12.50
2022-10-02T07:00:08.709Z,12.60
2022-10-02T07:03:16.564Z,12.60
2022-10-02T07:06:12.561Z,12.60
2022-10-02T07:08:56.837Z,12.70
2022-10-02T07:11:29.126Z,12.70
2022-10-02T07:14:11.784Z,12.70
2022-10-02T07:16:58.543Z,12.80
2022-10-02T07:19:49.374Z,12.70
2022-10-02T07:22:44.393Z,12.80
2022-10-02T07:25:32.327Z,12.80
2022-10-02T07:28:10.514Z,12.80
2022-10-02T07:30:48.062Z,12.80
2022-10-02T07:33:25.313Z,12.80
2022-10-02T07:36:05.794Z,12.80
2022-10-02T07:38:58.623Z,12.90
2022-10-02T07:41:49.047Z,12.90
2022-10-02T07:44:31.127Z,12.90
2022-10-02T07:47:08.244Z,12.90
2022-10-02T07:49:52.073Z,13.00
2022-10-02T07:52:27.706Z,13.00
2022-10-02T07:55:09.074Z,13.10
2022-10-02T07:57:43.364Z,13.10
2022-10-02T08:00:15.363Z,13.10
2022-10-02T08:02:50.602Z,13.10
2022-10-02T08:05:23.359Z,13.10
2022-10-02T08:07:55.435Z,13.10
2022-10-02T08:10:27.454Z,13.20
2022-10-02T08:13:10.934Z,13.20
2022-10-02T08:15:39.452Z,13.20
2022-10-02T08:18:33.512Z,13.20
2022-10-02T08:21:05.294Z,13.30
2022-10-02T08:23:40.526Z,13.30
2022-10-02T08:26:13.317Z,13.30
2022-10-02T08:28:46.018Z,13.30
2022-10-02T08:31:15.793Z,13.30
2022-10-02T08:33:43.977Z,13.30
2022-10-02T08:36:51.210Z,13.40
2022-10-02T08:40:03.093Z,13.40
2022-10-02T08:43:04.097Z,13.40
2022-10-02T08:45:49.911Z,13.50
2022-10-02T08:49:13.680Z,13.40
2022-10-02T08:52:10.630Z,13.50
2022-10-02T08:55:09.495Z,13.50
2022-10-02T08:58:04.054Z,13.50
2022-10-02T09:00:46.628Z,13.50
2022-10-02T09:03:45.534Z,13.60
2022-10-02T09:06:45.106Z,13.70
2022-10-02T09:09:45.767Z,13.70
2022-10-02T09:12:53.018Z,13.70
2022-10-02T09:15:27.578Z,13.70
2022-10-02T09:18:15.519Z,13.70
2022-10-02T09:21:23.518Z,13.70
2022-10-02T09:24:21.011Z,13.60
2022-10-02T09:27:06.118Z,13.60
2022-10-02T09:30:07.841Z,13.60
2022-10-02T09:33:06.411Z,13.60
2022-10-02T09:36:12.493Z,13.50
2022-10-02T09:39:09.631Z,13.60
2022-10-02T09:42:09.410Z,13.60
2022-10-02T09:45:03.708Z,13.60
2022-10-02T09:48:11.736Z,13.70
2022-10-02T09:51:17.154Z,13.70
2022-10-02T09:54:21.560Z,13.70
2022-10-02T09:57:31.775Z,13.60
2022-10-02T10:00:24.164Z,13.60
2022-10-02T10:03:29.164Z,13.60
2022-10-02T10:06:30.147Z,13.60
2022-10-02T10:09:34.858Z,13.50
2022-10-02T10:12:49.300Z,13.50
2022-10-02T10:15:42.065Z,13.50
2022-10-02T10:18:42.280Z,13.50
2022-10-02T10:21:49.806Z,13.50
2022-10-02T10:25:03.202Z,13.60
2022-10-02T10:27:57.242Z,13.70
2022-10-02T10:30:56.254Z,13.70
2022-10-02T10:33:50.204Z,13.80
2022-10-02T10:37:17.418Z,13.90
2022-10-02T10:40:23.859Z,13.90
2022-10-02T10:43:24.278Z,13.90
2022-10-02T10:46:08.308Z,14.00
2022-10-02T10:48:55.039Z,14.00
2022-10-02T10:51:32.467Z,14.20
2022-10-02T10:54:48.650Z,14.40
2022-10-02T10:57:34.784Z,14.50
2022-10-02T11:00:17.112Z,14.60
2022-10-02T11:03:21.506Z,14.60
2022-10-02T11:06:12.390Z,14.70
2022-10-02T11:09:12.810Z,14.80
2022-10-02T11:11:58.874Z,14.80
2022-10-02T11:14:36.283Z,14.80
2022-10-02T11:17:38.832Z,14.90
2022-10-02T11:20:25.324Z,15.00
2022-10-02T11:23:21.698Z,15.00
2022-10-02T11:26:17.698Z,15.00
2022-10-02T11:29:02.537Z,15.00
2022-10-02T11:31:41.868Z,15.00
2022-10-02T11:34:38.006Z,15.10
2022-10-02T11:37:24.393Z,15.10
2022-10-02T11:40:22.826Z,15.10
2022-10-02T11:43:13.689Z,15.10
2022-10-02T11:46:00.091Z,15.10
2022-10-02T11:48:56.725Z,15.20
2022-10-02T11:51:57.461Z,15.30
2022-10-02T11:54:48.449Z,15.40
2022-10-02T11:57:29.913Z,15.40
2022-10-02T12:00:14.738Z,15.40
2022-10-02T12:02:50.885Z,15.30
2022-10-02T12:05:36.005Z,15.30
2022-10-02T12:08:14.837Z,15.20
2022-10-02T12:10:52.658Z,15.20
2022-10-02T12:13:36.461Z,15.20
2022-10-02T12:16:11.129Z,15.30
2022-10-02T12:19:02.068Z,15.30
2022-10-02T12:22:11.927Z,15.40
2022-10-02T12:25:06.570Z,15.40
2022-10-02T12:27:50.823Z,15.50
2022-10-02T12:30:22.209Z,15.50
2022-10-02T12:33:10.347Z,15.50
2022-10-02T12:36:05.379Z,15.60
2022-10-02T12:38:47.562Z,15.70
2022-10-02T12:41:35.514Z,15.80
2022-10-02T12:44:28.581Z,15.90
2022-10-02T12:47:20.933Z,15.90
2022-10-02T12:49:59.015Z,15.90
2022-10-02T12:52:55.487Z,16.00
2022-10-02T12:56:01.270Z,16.00
2022-10-02T12:58:46.161Z,16.00
2022-10-02T13:01:32.388Z,16.00
2022-10-02T13:04:17.040Z,16.10
2022-10-02T13:07:10.831Z,16.20
2022-10-02T13:09:48.292Z,16.30
2022-10-02T13:12:36.948Z,16.30
2022-10-02T13:15:25.845Z,16.40
2022-10-02T13:18:03.088Z,16.40
2022-10-02T13:20:39.777Z,16.40
2022-10-02T13:23:25.700Z,16.40
2022-10-02T13:26:04.071Z,16.30
2022-10-02T13:28:53.164Z,16.30
2022-10-02T13:31:36.903Z,16.30
2022-10-02T13:34:23.097Z,16.30
2022-10-02T13:37:04.648Z,16.30
2022-10-02T13:39:45.009Z,16.40
2022-10-02T13:42:23.368Z,16.40
2022-10-02T13:45:02.429Z,16.50
2022-10-02T13:47:40.924Z,16.50
2022-10-02T13:50:26.559Z,16.50
2022-10-02T13:53:08.219Z,16.50
2022-10-02T13:55:42.506Z,16.50
2022-10-02T13:58:28.498Z,16.50
2022-10-02T14:01:08.028Z,16.50
2022-10-02T14:03:50.016Z,16.50
2022-10-02T14:06:25.497Z,16.40
2022-10-02T14:09:27.106Z,16.40
2022-10-02T14:12:10.398Z,16.40
2022-10-02T14:14:56.226Z,16.40
2022-10-02T14:17:34.938Z,16.40
2022-10-02T14:20:19.062Z,16.40
2022-10-02T14:23:03.824Z,16.40
2022-10-02T14:25:42.373Z,16.40
2022-10-02T14:28:36.783Z,16.40
2022-10-02T14:31:25.362Z,16.30
2022-10-02T14:34:10.623Z,16.30
2022-10-02T14:36:45.150Z,16.30
2022-10-02T14:39:30.358Z,16.30
2022-10-02T14:42:18.146Z,16.20
2022-10-02T14:45:21.224Z,16.20
2022-10-02T14:48:07.166Z,16.10
2022-10-02T14:50:45.800Z,16.10
2022-10-02T14:53:31.727Z,16.00
2022-10-02T14:56:33.268Z,16.00
2022-10-02T14:59:17.243Z,16.00
2022-10-02T15:01:53.818Z,15.90
2022-10-02T15:04:31.632Z,15.90
2022-10-02T15:07:08.036Z,15.90
2022-10-02T15:09:51.471Z,15.90
2022-10-02T15:12:25.101Z,15.80
2022-10-02T15:15:03.347Z,15.80
2022-10-02T15:17:57.320Z,15.70
2022-10-02T15:20:31.629Z,15.70
2022-10-02T15:23:01.311Z,15.70
2022-10-02T15:25:47.895Z,15.60
2022-10-02T15:28:37.094Z,15.60
2022-10-02T15:31:17.023Z,15.60
2022-10-02T15:33:55.636Z,15.50
2022-10-02T15:36:40.318Z,15.50
2022-10-02T15:39:45.615Z,15.40
2022-10-02T15:42:19.896Z,15.40
2022-10-02T15:45:07.317Z,15.40
2022-10-02T15:47:53.662Z,15.30
2022-10-02T15:50:30.138Z,15.30
2022-10-02T15:53:22.508Z,15.20
2022-10-02T15:55:56.705Z,15.20
2022-10-02T15:58:42.666Z,15.10
2022-10-02T16:01:41.542Z,15.10
2022-10-02T16:04:20.518Z,15.00
2022-10-02T16:07:14.476Z,15.00
2022-10-02T16:09:50.926Z,14.90
2022-10-02T16:12:37.112Z,14.90
2022-10-02T16:15:17.901Z,14.90
2022-10-02T16:18:13.685Z,14.80
2022-10-02T16:21:07.246Z,14.80
2022-10-02T16:23:51.035Z,14.70
2022-10-02T16:26:32.256Z,14.70
2022-10-02T16:29:19.130Z,14.70
2022-10-02T16:32:00.163Z,14.70
2022-10-02T16:34:43.160Z,14.70
2022-10-02T16:37:23.960Z,14.60
2022-10-02T16:40:00.519Z,14.60
2022-10-02T16:42:40.014Z,14.50
2022-10-02T16:45:34.993Z,14.50
2022-10-02T16:48:08.590Z,14.50
2022-10-02T16:50:53.608Z,14.40
2022-10-02T16:53:26.987Z,14.40
2022-10-02T16:56:06.080Z,14.40
2022-10-02T16:58:43.168Z,14.30
2022-10-02T17:01:23.824Z,14.30
2022-10-02T17:04:18.954Z,14.30
2022-10-02T17:06:52.374Z,14.30
2022-10-02T17:09:26.596Z,14.30
2022-10-02T17:12:02.746Z,14.20
2022-10-02T17:14:40.584Z,14.20
2022-10-02T17:17:15.619Z,14.10
2022-10-02T17:19:48.575Z,14.10
2022-10-02T17:22:29.261Z,14.10
2022-10-02T17:25:07.554Z,14.00
2022-10-02T17:27:47.031Z,14.00
2022-10-02T17:30:19.938Z,13.90
2022-10-02T17:33:04.321Z,13.90
2022-10-02T17:35:49.770Z,13.90
2022-10-02T17:38:37.382Z,13.90
2022-10-02T17:41:38.410Z,13.90
2022-10-02T17:44:20.296Z,13.80
2022-10-02T17:47:14.254Z,13.90
2022-10-02T17:49:55.392Z,13.80
2022-10-02T17:52:51.538Z,13.70
2022-10-02T17:56:02.280Z,13.70
2022-10-02T17:58:36.918Z,13.60
2022-10-02T18:01:13.693Z,13.50
2022-10-02T18:04:08.778Z,13.50
2022-10-02T18:06:45.736Z,13.50
2022-10-02T18:09:38.283Z,13.40
2022-10-02T18:12:26.763Z,13.40
2022-10-02T18:15:39.645Z,13.40
2022-10-02T18:18:22.122Z,13.40
2022-10-02T18:20:59.287Z,13.40
2022-10-02T18:23:50.309Z,13.30
2022-10-02T18:26:33.673Z,13.30
2022-10-02T18:29:14.954Z,13.30
2022-10-02T18:32:03.721Z,13.40
2022-10-02T18:34:53.439Z,13.30
2022-10-02T18:37:45.977Z,13.30
2022-10-02T18:40:23.101Z,13.30
2022-10-02T18:43:03.604Z,13.30
2022-10-02T18:45:44.239Z,13.30
2022-10-02T18:48:26.882Z,13.20
2022-10-02T18:51:11.972Z,13.20
2022-10-02T18:53:59.255Z,13.20
2022-10-02T18:56:43.989Z,13.10
2022-10-02T18:59:23.082Z,13.10
2022-10-02T19:02:02.565Z,13.00
2022-10-02T19:04:55.150Z,13.00
2022-10-02T19:07:29.329Z,13.00
2022-10-02T19:10:21.894Z,12.90
2022-10-02T19:12:54.623Z,12.80
2022-10-02T19:15:27.015Z,12.80
2022-10-02T19:18:01.469Z,12.70
2022-10-02T19:20:44.951Z,12.70
2022-10-02T19:23:30.320Z,12.60
2022-10-02T19:26:03.615Z,12.50
2022-10-02T19:28:34.588Z,12.50
2022-10-02T19:31:05.081Z,12.40
2022-10-02T19:33:46.430Z,12.30
2022-10-02T19:36:19.882Z,12.30
2022-10-02T19:38:54.578Z,12.30
2022-10-02T19:41:23.622Z,12.20
2022-10-02T19:43:56.936Z,12.20
2022-10-02T19:46:37.093Z,12.10
2022-10-02T19:49:07.510Z,12.10
2022-10-02T19:51:44.611Z,12.00
2022-10-02T19:54:18.046Z,12.00
2022-10-02T19:56:47.147Z,11.90
2022-10-02T19:59:19.324Z,11.90
2022-10-02T20:01:51.556Z,11.80
2022-10-02T20:04:23.154Z,11.80
2022-10-02T20:06:56.708Z,11.80
2022-10-02T20:09:30.836Z,11.70
2022-10-02T20:12:03.046Z,11.70
2022-10-02T20:14:38.231Z,11.70
2022-10-02T20:17:10.745Z,11.60
2022-10-02T20:19:45.161Z,11.60
2022-10-02T20:22:23.980Z,11.50
2022-10-02T20:24:57.707Z,11.50
2022-10-02T20:27:34.718Z,11.40
2022-10-02T20:30:06.710Z,11.40
2022-10-02T20:32:38.156Z,11.40
2022-10-02T20:35:15.179Z,11.40
2022-10-02T20:37:43.943Z,11.40
2022-10-02T20:40:17.139Z,11.40
2022-10-02T20:42:50.589Z,11.40
2022-10-02T20:45:18.618Z,11.40
2022-10-02T20:48:32.699Z,11.30
2022-10-02T20:51:16.329Z,11.30
2022-10-02T20:54:16.680Z,11.30
2022-10-02T20:57:38.208Z,11.20
2022-10-02T21:00:18.492Z,11.10
2022-10-02T21:03:18.338Z,11.00
2022-10-02T21:06:26.313Z,11.00
2022-10-02T21:09:17.306Z,10.90
2022-10-02T21:12:10.564Z,10.90
2022-10-02T21:15:19.714Z,10.80
2022-10-02T21:18:23.258Z,10.80
2022-10-02T21:21:21.702Z,10.70
2022-10-02T21:24:14.133Z,10.70
2022-10-02T21:27:13.943Z,10.70
2022-10-02T21:29:53.780Z,10.60
2022-10-02T21:32:40.118Z,10.50
2022-10-02T21:35:15.173Z,10.50
2022-10-02T21:38:00.943Z,10.50
2022-10-02T21:41:07.251Z,10.40
2022-10-02T21:44:03.498Z,10.40
2022-10-02T21:47:02.880Z,10.30
2022-10-02T21:50:04.177Z,10.30
2022-10-02T21:53:14.534Z,10.30
2022-10-02T21:56:12.620Z,10.20
2022-10-02T21:58:59.701Z,10.20
2022-10-02T22:02:30.830Z,10.20
2022-10-02T22:05:31.398Z,10.10
2022-10-02T22:08:08.307Z,10.10
2022-10-02T22:10:47.441Z,10.00
2022-10-02T22:13:25.751Z,10.00
2022-10-02T22:16:08.951Z,9.90
2022-10-02T22:18:48.324Z,9.90
2022-10-02T22:21:35.948Z,9.90
2022-10-02T22:24:44.106Z,9.80
2022-10-02T22:27:28.497Z,9.80
2022-10-02T22:29:58.634Z,9.70
2022-10-02T22:33:13.359Z,9.70
2022-10-02T22:36:14.430Z,9.60
2022-10-02T22:38:47.135Z,9.60
2022-10-02T22:41:24.528Z,9.50
2022-10-02T22:43:55.854Z,9.50
2022-10-02T22:46:37.769Z,9.50
2022-10-02T22:49:16.347Z,9.40
2022-10-02T22:52:00.478Z,9.40
2022-10-02T22:54:35.603Z,9.30
2022-10-02T22:57:14.625Z,9.30
2022-10-02T22:59:49.426Z,9.30
2022-10-02T23:02:24.948Z,9.20
2022-10-02T23:05:00.440Z,9.20
2022-10-02T23:07:34.990Z,9.20
2022-10-02T23:10:05.926Z,9.10
2022-10-02T23:12:39.844Z,9.10
2022-10-02T23:15:26.478Z,9.00
2022-10-02T23:17:59.665Z,9.00
2022-10-02T23:20:33.781Z,9.00
2022-10-02T23:23:07.568Z,8.90
2022-10-02T23:25:44.068Z,8.90
2022-10-02T23:28:17.664Z,8.80
2022-10-02T23:30:49.278Z,8.80
2022-10-02T23:33:24.618Z,8.70
2022-10-02T23:35:59.870Z,8.70
2022-10-02T23:38:36.984Z,8.70
2022-10-02T23:41:28.606Z,8.70
2022-10-02T23:44:08.565Z,8.60
2022-10-02T23:46:55.656Z,8.60
2022-10-02T23:49:27.766Z,8.60
2022-10-02T23:52:03.958Z,8.50
2022-10-02T23:54:50.825Z,8.50
2022-10-02T23:57:39.158Z,8.50
